Time;durP1;ratioP1;P1;durP2;ratioP2;P2;SDS_P1;SDS_P2;PMS_P1;PMS_P2;Temp;Humidity;BMP_temperature;BMP_pressure;BME280_temperature;BME280_humidity;BME280_pressure;Samples;Min_cycle;Max_cycle;Signal;HPM_P1;HPM_P2
2023/12/06 00:02:03;;;;;;;34.20;15.13;;;1.40;99.90;;;;;;5082945;28;21261;-72
2023/12/06 00:04:30;;;;;;;38.13;16.97;;;1.40;99.90;;;;;;5087606;28;20063;-72
2023/12/06 00:06:56;;;;;;;;;;;1.40;99.90;;;;;;5069135;28;20631;-72
2023/12/06 00:09:25;;;;;;;36.55;15.55;;;1.40;99.90;;;;;;5085333;28;20157;-72
2023/12/06 00:11:50;;;;;;;38.40;16.15;;;1.40;99.90;;;;;;5085319;28;20072;-73
2023/12/06 00:14:16;;;;;;;38.63;16.17;;;1.50;99.90;;;;;;5082559;28;20083;-72
2023/12/06 00:16:41;;;;;;;34.37;15.00;;;1.40;99.90;;;;;;5080432;28;20550;-72
2023/12/06 00:19:12;;;;;;;38.03;15.60;;;1.50;99.90;;;;;;5076490;28;20039;-72
2023/12/06 00:21:38;;;;;;;36.63;16.03;;;1.40;99.90;;;;;;5055993;28;20102;-72
2023/12/06 00:24:04;;;;;;;36.47;16.90;;;1.50;99.90;;;;;;5077342;28;20420;-73
2023/12/06 00:26:30;;;;;;;34.65;15.30;;;1.50;99.90;;;;;;5061966;28;20097;-73
2023/12/06 00:28:56;;;;;;;34.20;15.50;;;1.50;99.90;;;;;;5086608;28;20055;-72
2023/12/06 00:31:24;;;;;;;37.70;15.60;;;1.50;99.90;;;;;;5062719;28;20043;-72
2023/12/06 00:33:49;;;;;;;34.03;15.23;;;1.50;99.90;;;;;;5081592;28;20400;-72
2023/12/06 00:36:15;;;;;;;38.77;15.53;;;1.50;99.90;;;;;;5082193;28;20040;-73
2023/12/06 00:38:41;;;;;;;28.80;15.65;;;1.50;99.90;;;;;;5085204;28;20047;-72
2023/12/06 00:41:06;;;;;;;35.13;14.80;;;1.50;99.90;;;;;;5081592;28;20537;-72
2023/12/06 00:43:32;;;;;;;34.87;15.13;;;1.50;99.90;;;;;;5059017;28;20493;-73
2023/12/06 00:45:58;;;;;;;31.77;14.17;;;1.50;99.90;;;;;;5063708;28;20541;-72
2023/12/06 00:48:23;;;;;;;36.27;15.23;;;1.50;99.90;;;;;;5077567;28;20039;-73
2023/12/06 00:50:49;;;;;;;30.07;12.73;;;1.50;99.90;;;;;;5078054;28;20156;-73
2023/12/06 00:53:15;;;;;;;32.47;14.70;;;1.50;99.90;;;;;;5076890;28;20036;-73
2023/12/06 00:55:43;;;;;;;34.63;14.47;;;1.50;99.90;;;;;;5082067;28;20134;-72
2023/12/06 00:58:08;;;;;;;33.05;14.88;;;1.60;99.90;;;;;;5082921;28;20082;-72
2023/12/06 01:00:34;;;;;;;30.93;13.97;;;1.60;99.90;;;;;;5063788;28;20048;-72
2023/12/06 01:03:00;;;;;;;30.23;13.90;;;1.60;99.90;;;;;;5080899;28;20055;-72
2023/12/06 01:05:25;;;;;;;35.03;15.13;;;1.60;99.90;;;;;;5083040;28;20446;-72
2023/12/06 01:07:51;;;;;;;34.63;14.43;;;1.60;99.90;;;;;;5079986;28;20606;-73
2023/12/06 01:10:17;;;;;;;26.90;13.33;;;1.60;99.90;;;;;;5085398;28;20032;-72
2023/12/06 01:12:42;;;;;;;27.93;13.13;;;1.60;99.90;;;;;;5081668;28;20040;-72
2023/12/06 01:15:09;;;;;;;25.67;12.93;;;1.60;99.90;;;;;;5077914;28;20040;-73
2023/12/06 01:17:34;;;;;;;28.00;13.18;;;1.70;99.90;;;;;;5080507;28;20043;-72
2023/12/06 01:20:00;;;;;;;28.30;12.23;;;1.70;99.90;;;;;;5080254;28;20290;-72
2023/12/06 01:22:25;;;;;;;25.90;13.03;;;1.70;99.90;;;;;;5085073;28;20032;-72
2023/12/06 01:24:57;;;;;;;28.03;14.17;;;1.70;99.90;;;;;;5080476;28;20543;-72
2023/12/06 01:27:23;;;;;;;26.13;13.00;;;1.70;99.90;;;;;;5079921;28;20032;-72
2023/12/06 01:29:48;;;;;;;30.80;14.23;;;1.70;99.90;;;;;;5074962;28;20046;-72
2023/12/06 01:32:14;;;;;;;29.57;12.97;;;1.70;99.90;;;;;;5075982;28;20044;-72
2023/12/06 01:34:42;;;;;;;27.30;13.33;;;1.70;99.90;;;;;;5075936;28;20562;-72
2023/12/06 01:37:13;;;;;;;26.08;12.57;;;1.70;99.90;;;;;;5080348;28;20040;-72
2023/12/06 01:39:41;;;;;;;23.95;12.07;;;1.70;99.90;;;;;;5082850;28;20044;-73
2023/12/06 01:42:07;;;;;;;30.23;14.18;;;1.80;99.90;;;;;;5060933;28;20036;-72
2023/12/06 01:44:34;;;;;;;26.20;13.43;;;1.80;99.90;;;;;;5077295;28;20047;-72
2023/12/06 01:47:02;;;;;;;25.73;11.65;;;1.80;99.90;;;;;;5084802;28;20040;-72
2023/12/06 01:49:29;;;;;;;25.63;11.90;;;1.80;99.90;;;;;;5077850;28;20047;-72
2023/12/06 01:51:55;;;;;;;24.15;11.75;;;1.80;99.90;;;;;;5072825;28;20444;-72
2023/12/06 01:54:20;;;;;;;24.17;11.80;;;1.80;99.90;;;;;;5081633;28;20071;-72
2023/12/06 01:56:46;;;;;;;25.33;11.73;;;1.80;99.90;;;;;;5071358;28;20131;-72
2023/12/06 01:59:13;;;;;;;23.25;11.85;;;1.80;99.90;;;;;;5082490;28;20097;-71
2023/12/06 02:01:38;;;;;;;25.85;11.63;;;1.80;99.90;;;;;;5062085;28;20040;-72
2023/12/06 02:04:04;;;;;;;21.10;10.27;;;1.80;99.90;;;;;;5081140;28;20135;-72
2023/12/06 02:06:30;;;;;;;24.03;10.77;;;1.80;99.90;;;;;;5078814;28;20408;-72
2023/12/06 02:08:57;;;;;;;25.60;10.70;;;1.90;99.90;;;;;;5075063;28;20044;-72
2023/12/06 02:11:23;;;;;;;20.75;10.80;;;1.80;99.90;;;;;;5079342;28;20055;-72
2023/12/06 02:13:51;;;;;;;22.17;11.30;;;1.90;99.90;;;;;;5075607;28;20135;-72
2023/12/06 02:16:18;;;;;;;26.00;12.23;;;1.90;99.90;;;;;;5077207;28;20127;-72
2023/12/06 02:18:44;;;;;;;20.50;10.73;;;1.90;99.90;;;;;;5061031;28;20045;-72
2023/12/06 02:21:13;;;;;;;23.17;11.10;;;1.90;99.90;;;;;;5074654;28;20036;-72
2023/12/06 02:23:45;;;;;;;25.08;11.27;;;1.90;99.90;;;;;;5067622;28;20036;-72
2023/12/06 02:26:11;;;;;;;20.65;9.93;;;1.90;99.90;;;;;;5075478;28;21130;-71
2023/12/06 02:28:36;;;;;;;22.47;10.63;;;1.90;99.90;;;;;;5082581;28;20071;-71
2023/12/06 02:31:03;;;;;;;20.37;10.33;;;1.90;99.90;;;;;;5084374;28;20128;-71
2023/12/06 02:33:33;;;;;;;20.88;10.65;;;1.90;99.90;;;;;;5068351;28;20535;-72
2023/12/06 02:36:01;;;;;;;18.98;9.85;;;1.90;99.90;;;;;;5079245;28;20093;-72
2023/12/06 02:38:28;;;;;;;19.85;10.55;;;2.00;99.90;;;;;;5084414;28;20111;-71
2023/12/06 02:40:56;;;;;;;22.52;11.00;;;2.00;99.90;;;;;;5064917;28;20071;-71
2023/12/06 02:43:22;;;;;;;21.02;10.77;;;2.00;99.90;;;;;;5079700;28;20041;-71
2023/12/06 02:45:50;;;;;;;19.95;9.77;;;1.90;99.90;;;;;;5078305;28;20036;-71
2023/12/06 02:48:16;;;;;;;19.57;10.03;;;2.00;99.90;;;;;;5080345;28;20043;-71
2023/12/06 02:50:42;;;;;;;23.13;10.23;;;2.00;99.90;;;;;;5073497;28;20043;-72
2023/12/06 02:53:07;;;;;;;19.97;10.20;;;2.00;99.90;;;;;;5077301;28;20299;-71
2023/12/06 02:55:33;;;;;;;18.30;10.27;;;2.00;99.90;;;;;;5081754;28;20047;-72
2023/12/06 02:57:58;;;;;;;21.03;10.97;;;2.00;99.90;;;;;;5073617;28;20043;-71
2023/12/06 03:00:27;;;;;;;23.90;10.10;;;2.00;99.90;;;;;;5073852;28;20059;-71
2023/12/06 03:02:52;;;;;;;22.23;9.73;;;2.00;99.90;;;;;;5074693;28;20257;-72
2023/12/06 03:05:19;;;;;;;19.80;10.07;;;2.00;99.90;;;;;;5078750;28;20040;-71
2023/12/06 03:07:44;;;;;;;20.08;10.18;;;2.00;99.90;;;;;;5076939;28;20512;-71
2023/12/06 03:10:10;;;;;;;21.50;10.30;;;2.00;99.90;;;;;;5085174;28;20152;-71
2023/12/06 03:12:36;;;;;;;17.93;8.93;;;2.00;99.90;;;;;;5076889;28;20036;-71
2023/12/06 03:15:01;;;;;;;16.50;8.40;;;2.10;99.90;;;;;;5081675;28;20043;-72
2023/12/06 03:17:29;;;;;;;19.40;9.70;;;2.10;99.90;;;;;;5078699;28;20151;-71
2023/12/06 03:19:58;;;;;;;18.05;10.18;;;2.00;99.90;;;;;;5075580;28;20040;-70
2023/12/06 03:22:23;;;;;;;19.27;10.43;;;2.10;99.90;;;;;;5085960;28;20081;-71
2023/12/06 03:24:54;;;;;;;20.57;10.40;;;2.10;99.90;;;;;;5082096;28;20043;-71
2023/12/06 03:27:21;;;;;;;18.90;10.27;;;2.10;99.90;;;;;;5081139;28;20289;-71
2023/12/06 03:29:46;;;;;;;21.52;10.57;;;2.10;99.90;;;;;;5058178;28;20037;-71
2023/12/06 03:32:12;;;;;;;21.43;9.97;;;2.10;99.90;;;;;;5073466;28;20349;-71
2023/12/06 03:34:37;;;;;;;18.13;9.83;;;2.10;99.90;;;;;;5083326;28;20197;-72
2023/12/06 03:37:03;;;;;;;20.60;10.73;;;2.10;99.90;;;;;;5090453;28;20621;-72
2023/12/06 03:39:29;;;;;;;18.17;10.00;;;2.10;99.90;;;;;;5081264;28;20345;-71
2023/12/06 03:41:54;;;;;;;20.70;9.80;;;2.10;99.90;;;;;;5085058;28;20090;-71
2023/12/06 03:44:25;;;;;;;18.80;10.27;;;2.10;99.90;;;;;;5082512;28;20559;-72
2023/12/06 03:46:51;;;;;;;18.60;9.93;;;2.10;99.90;;;;;;5084625;28;20076;-71
2023/12/06 03:49:17;;;;;;;23.53;10.53;;;2.20;99.90;;;;;;5090001;28;20479;-72
2023/12/06 03:51:42;;;;;;;22.23;10.27;;;2.10;99.90;;;;;;5085509;28;20039;-71
2023/12/06 03:54:10;;;;;;;18.37;10.27;;;2.10;99.90;;;;;;5071008;28;20047;-71
2023/12/06 03:56:36;;;;;;;23.38;9.85;;;2.10;99.90;;;;;;5087711;28;20433;-71
2023/12/06 03:59:04;;;;;;;20.13;10.87;;;2.10;99.90;;;;;;5078899;28;20269;-71
2023/12/06 04:01:29;;;;;;;17.58;9.32;;;2.20;99.90;;;;;;5085000;28;20040;-72
2023/12/06 04:03:55;;;;;;;21.17;9.40;;;2.20;99.90;;;;;;5082368;28;20092;-71
2023/12/06 04:06:20;;;;;;;19.03;10.57;;;2.20;99.90;;;;;;5087100;28;20454;-72
2023/12/06 04:08:46;;;;;;;16.10;9.30;;;2.20;99.90;;;;;;5084673;28;20032;-71
2023/12/06 04:11:12;;;;;;;19.07;9.90;;;2.20;99.90;;;;;;5086320;28;20077;-72
2023/12/06 04:13:37;;;;;;;20.10;9.67;;;2.20;99.90;;;;;;5092856;28;20244;-72
2023/12/06 04:16:04;;;;;;;20.97;10.70;;;2.20;99.90;;;;;;5085804;28;20428;-72
2023/12/06 04:18:30;;;;;;;15.30;8.68;;;2.20;99.90;;;;;;5074973;28;20044;-71
2023/12/06 04:20:55;;;;;;;21.13;10.00;;;2.20;99.90;;;;;;5070128;28;20071;-72
2023/12/06 04:23:21;;;;;;;16.63;8.77;;;2.20;99.90;;;;;;5080685;28;20036;-71
2023/12/06 04:25:47;;;;;;;20.43;10.13;;;2.20;99.90;;;;;;5081455;28;20524;-71
2023/12/06 04:28:13;;;;;;;18.45;9.55;;;2.20;99.90;;;;;;5088830;28;20571;-71
2023/12/06 04:30:44;;;;;;;17.92;9.35;;;2.30;99.90;;;;;;5081661;28;20488;-71
2023/12/06 04:33:13;;;;;;;17.90;9.07;;;2.30;99.90;;;;;;5080931;28;20051;-71
2023/12/06 04:35:41;;;;;;;19.15;10.57;;;2.30;99.90;;;;;;5084344;28;20074;-71
2023/12/06 04:38:09;;;;;;;18.02;9.55;;;2.30;99.90;;;;;;5082720;28;20063;-71
2023/12/06 04:40:35;;;;;;;18.25;9.98;;;2.30;99.90;;;;;;5081328;28;20351;-72
2023/12/06 04:43:06;;;;;;;14.77;9.25;;;2.30;99.90;;;;;;5081353;28;20127;-72
2023/12/06 04:45:32;;;;;;;18.08;9.15;;;2.30;99.90;;;;;;5067517;28;20063;-71
2023/12/06 04:47:58;;;;;;;16.88;9.40;;;2.30;99.90;;;;;;5081219;28;20044;-71
2023/12/06 04:50:23;;;;;;;15.23;8.30;;;2.40;99.90;;;;;;5088510;28;20195;-71
2023/12/06 04:52:49;;;;;;;13.07;8.60;;;2.40;99.90;;;;;;5082278;28;20420;-71
2023/12/06 04:55:21;;;;;;;14.47;8.37;;;2.40;99.90;;;;;;5071965;28;20127;-71
2023/12/06 04:57:49;;;;;;;22.15;8.18;;;2.40;99.90;;;;;;5065921;28;20032;-71
2023/12/06 05:00:15;;;;;;;14.63;8.50;;;2.40;99.90;;;;;;5078421;28;20055;-71
2023/12/06 05:02:41;;;;;;;14.80;8.77;;;2.40;99.90;;;;;;5078523;28;20127;-72
2023/12/06 05:05:07;;;;;;;17.07;8.87;;;2.40;99.90;;;;;;5080973;28;20123;-71
2023/12/06 05:07:32;;;;;;;14.27;7.17;;;2.50;99.90;;;;;;5080898;28;20119;-71
2023/12/06 05:09:58;;;;;;;12.93;7.37;;;2.50;99.90;;;;;;5080483;28;20088;-71
2023/12/06 05:12:23;;;;;;;12.10;8.13;;;2.50;99.90;;;;;;5078629;28;20048;-71
2023/12/06 05:14:49;;;;;;;14.47;8.20;;;2.50;99.90;;;;;;5083773;28;20040;-71
2023/12/06 05:17:14;;;;;;;14.23;7.87;;;2.50;99.90;;;;;;5068560;28;20104;-71
2023/12/06 05:19:40;;;;;;;12.70;7.67;;;2.50;99.90;;;;;;5088513;28;20048;-71
2023/12/06 05:22:06;;;;;;;12.97;7.50;;;2.50;99.90;;;;;;5088869;27;20036;-71
2023/12/06 05:24:31;;;;;;;11.60;7.23;;;2.50;99.90;;;;;;5065768;28;20270;-71
2023/12/06 05:27:00;;;;;;;15.13;7.60;;;2.50;99.90;;;;;;5078866;28;20051;-71
2023/12/06 05:29:25;;;;;;;11.20;6.70;;;2.50;99.90;;;;;;5083247;28;20067;-71
2023/12/06 05:31:51;;;;;;;15.70;7.87;;;2.50;99.90;;;;;;5080275;28;20133;-71
2023/12/06 05:34:17;;;;;;;17.17;8.07;;;2.50;99.90;;;;;;5064449;28;20077;-71
2023/12/06 05:36:45;;;;;;;13.23;7.38;;;2.60;99.90;;;;;;5082586;28;20424;-70
2023/12/06 05:39:11;;;;;;;16.80;7.73;;;2.50;99.90;;;;;;5081284;28;20044;-71
2023/12/06 05:41:37;;;;;;;12.35;8.15;;;2.60;99.90;;;;;;5064136;28;20068;-71
2023/12/06 05:44:07;;;;;;;16.20;8.47;;;2.50;99.90;;;;;;5080069;28;20504;-71
2023/12/06 05:46:35;;;;;;;14.45;8.20;;;2.50;99.90;;;;;;5080603;28;20036;-70
2023/12/06 05:49:07;;;;;;;14.65;8.30;;;2.60;99.90;;;;;;5081012;28;20114;-71
2023/12/06 05:51:32;;;;;;;12.40;7.47;;;2.60;99.90;;;;;;5081880;28;20227;-71
2023/12/06 05:53:58;;;;;;;13.50;7.07;;;2.60;99.90;;;;;;5086551;28;20067;-71
2023/12/06 05:56:23;;;;;;;11.87;7.40;;;2.60;99.90;;;;;;5082153;28;20507;-71
2023/12/06 05:58:50;;;;;;;15.67;7.70;;;2.60;99.90;;;;;;5081730;28;20032;-71
2023/12/06 06:01:15;;;;;;;11.00;6.75;;;2.60;99.90;;;;;;5081061;28;20036;-71
2023/12/06 06:03:41;;;;;;;11.53;7.07;;;2.60;99.90;;;;;;5082991;28;20546;-71
2023/12/06 06:06:07;;;;;;;12.57;7.40;;;2.60;99.90;;;;;;5079582;28;20489;-70
2023/12/06 06:08:34;;;;;;;;;;;2.60;99.90;;;;;;5063044;28;20554;-71
2023/12/06 06:11:00;;;;;;;11.50;6.97;;;2.70;99.90;;;;;;5081116;28;20062;-71
2023/12/06 06:13:29;;;;;;;12.98;7.40;;;2.70;99.90;;;;;;5065293;28;20069;-71
2023/12/06 06:16:04;;;;;;;16.13;7.57;;;2.70;99.90;;;;;;5079155;28;20056;-71
2023/12/06 06:18:30;;;;;;;16.43;8.20;;;2.70;99.90;;;;;;5074920;28;20051;-71
2023/12/06 06:20:58;;;;;;;12.10;7.20;;;2.70;99.90;;;;;;5061630;28;20297;-72
2023/12/06 06:23:26;;;;;;;12.45;6.82;;;2.70;99.90;;;;;;5076732;28;20771;-72
2023/12/06 06:25:52;;;;;;;16.00;7.97;;;2.70;99.90;;;;;;5081625;28;20587;-71
2023/12/06 06:28:17;;;;;;;13.83;7.23;;;2.70;99.90;;;;;;5081448;28;20067;-71
2023/12/06 06:30:43;;;;;;;14.73;7.00;;;2.70;99.90;;;;;;5057018;28;20040;-71
2023/12/06 06:33:08;;;;;;;11.87;7.20;;;2.70;99.90;;;;;;5082082;28;20054;-71
2023/12/06 06:35:37;;;;;;;17.07;8.23;;;2.70;99.90;;;;;;5082673;28;20077;-71
2023/12/06 06:38:05;;;;;;;12.80;7.32;;;2.80;99.90;;;;;;5065129;28;20039;-72
2023/12/06 06:40:30;;;;;;;12.68;7.82;;;2.80;99.90;;;;;;5085467;28;20428;-71
2023/12/06 06:42:59;;;;;;;12.13;7.20;;;2.80;99.90;;;;;;5083276;28;20044;-72
2023/12/06 06:45:24;;;;;;;13.57;7.20;;;2.80;99.90;;;;;;5074436;28;20044;-77
2023/12/06 06:47:50;;;;;;;12.10;6.77;;;2.80;99.90;;;;;;5082480;28;20044;-74
2023/12/06 06:50:15;;;;;;;12.63;7.10;;;2.80;99.90;;;;;;5063449;28;20494;-71
2023/12/06 06:52:41;;;;;;;13.67;6.80;;;2.90;99.90;;;;;;5085815;28;20127;-71
2023/12/06 06:55:07;;;;;;;12.52;7.32;;;2.90;99.90;;;;;;5078998;28;20131;-72
2023/12/06 06:57:33;;;;;;;13.50;8.10;;;2.90;99.90;;;;;;5074733;28;20062;-79
2023/12/06 06:59:59;;;;;;;16.38;8.30;;;2.90;99.90;;;;;;5083731;28;20071;-71
2023/12/06 07:02:24;;;;;;;14.17;7.87;;;2.90;99.90;;;;;;5072806;28;20558;-71
2023/12/06 07:04:53;;;;;;;25.03;13.40;;;2.90;99.90;;;;;;5078658;28;20071;-72
2023/12/06 07:07:19;;;;;;;49.20;22.20;;;2.90;99.90;;;;;;5085950;28;20395;-71
2023/12/06 07:09:45;;;;;;;20.38;10.43;;;2.90;99.90;;;;;;5080743;28;20068;-71
2023/12/06 07:12:11;;;;;;;18.00;9.10;;;2.80;99.90;;;;;;5074698;28;20175;-71
2023/12/06 07:14:39;;;;;;;19.93;9.13;;;2.90;99.90;;;;;;5078650;28;20621;-72
2023/12/06 07:17:08;;;;;;;14.05;7.45;;;2.90;99.90;;;;;;5089676;28;20507;-70
2023/12/06 07:19:39;;;;;;;14.38;8.13;;;2.90;99.90;;;;;;5087649;28;20047;-71
2023/12/06 07:22:10;;;;;;;13.23;8.10;;;2.90;99.90;;;;;;5072843;28;20213;-71
2023/12/06 07:24:36;;;;;;;18.27;7.90;;;2.90;99.90;;;;;;5083641;28;20040;-71
2023/12/06 07:27:03;;;;;;;14.27;8.00;;;2.90;99.90;;;;;;5083284;28;20040;-73
2023/12/06 07:29:28;;;;;;;10.73;7.30;;;2.90;99.90;;;;;;5060089;28;20649;-72
2023/12/06 07:31:54;;;;;;;11.93;6.97;;;3.00;99.90;;;;;;5065232;28;20058;-71
2023/12/06 07:34:20;;;;;;;11.97;7.43;;;3.00;99.90;;;;;;5089023;28;20482;-71
2023/12/06 07:36:45;;;;;;;12.40;7.13;;;3.00;99.90;;;;;;5083599;28;20075;-70
2023/12/06 07:39:11;;;;;;;18.23;7.23;;;3.00;99.90;;;;;;5075103;28;20043;-71
2023/12/06 07:41:42;;;;;;;15.83;7.33;;;3.10;99.90;;;;;;5078028;28;20485;-71
2023/12/06 07:44:08;;;;;;;21.30;8.57;;;3.10;99.90;;;;;;5082617;28;20040;-72
2023/12/06 07:46:34;;;;;;;13.47;7.67;;;3.10;99.90;;;;;;5077407;28;20032;-71
2023/12/06 07:49:01;;;;;;;16.03;9.07;;;3.10;99.90;;;;;;5077733;28;20074;-71
2023/12/06 07:51:27;;;;;;;13.27;7.93;;;3.10;99.90;;;;;;5083242;28;20500;-72
2023/12/06 07:53:53;;;;;;;14.80;8.33;;;3.10;99.90;;;;;;5086606;28;20040;-71
2023/12/06 07:56:18;;;;;;;12.70;7.73;;;3.10;99.90;;;;;;5078117;28;20102;-71
2023/12/06 07:58:44;;;;;;;13.03;7.63;;;3.10;99.90;;;;;;5071868;28;20127;-71
2023/12/06 08:01:09;;;;;;;13.43;8.10;;;3.10;99.90;;;;;;5071138;28;20123;-72
2023/12/06 08:03:35;;;;;;;24.93;12.90;;;3.20;99.90;;;;;;5066677;28;20044;-71
2023/12/06 08:06:02;;;;;;;18.23;11.43;;;3.10;99.90;;;;;;5083628;28;20043;-72
2023/12/06 08:08:28;;;;;;;13.75;8.13;;;3.10;99.90;;;;;;5082457;28;20040;-72
2023/12/06 08:10:55;;;;;;;12.13;7.43;;;3.10;99.90;;;;;;5077396;28;20180;-72
2023/12/06 08:13:21;;;;;;;17.67;7.68;;;3.10;99.90;;;;;;5073172;28;20436;-72
2023/12/06 08:15:46;;;;;;;15.90;8.33;;;3.10;99.90;;;;;;5079290;28;20039;-72
2023/12/06 08:18:12;;;;;;;13.73;7.73;;;3.10;99.90;;;;;;5070971;28;20102;-72
2023/12/06 08:20:38;;;;;;;13.97;7.83;;;3.10;99.90;;;;;;5068221;28;21519;-72
2023/12/06 08:23:03;;;;;;;15.97;8.23;;;3.10;99.90;;;;;;5080794;28;20131;-72
2023/12/06 08:25:29;;;;;;;18.03;9.23;;;3.10;99.90;;;;;;5076233;28;20028;-72
2023/12/06 08:27:55;;;;;;;12.53;7.60;;;3.10;99.90;;;;;;5091122;28;20039;-71
2023/12/06 08:30:21;;;;;;;15.07;8.85;;;3.10;99.90;;;;;;5068818;28;20461;-72
2023/12/06 08:32:46;;;;;;;17.50;7.70;;;3.10;99.90;;;;;;5069605;28;20131;-71
2023/12/06 08:35:13;;;;;;;15.83;7.47;;;3.20;99.90;;;;;;5076341;28;20040;-71
2023/12/06 08:37:39;;;;;;;15.68;8.15;;;3.20;99.90;;;;;;5081100;28;20040;-71
2023/12/06 08:40:08;;;;;;;14.18;7.57;;;3.20;99.90;;;;;;5083903;28;20543;-71
2023/12/06 08:42:34;;;;;;;12.40;7.15;;;3.20;99.90;;;;;;5079544;28;20069;-72
2023/12/06 08:44:59;;;;;;;17.38;8.98;;;3.20;99.90;;;;;;5081314;28;20071;-72
2023/12/06 08:47:25;;;;;;;18.53;9.20;;;3.20;99.90;;;;;;5088578;28;20488;-71
2023/12/06 08:49:51;;;;;;;17.83;9.27;;;3.20;99.90;;;;;;5084318;28;20043;-71
2023/12/06 08:52:16;;;;;;;22.47;8.80;;;3.20;99.90;;;;;;5084324;28;20469;-72
2023/12/06 08:54:42;;;;;;;17.00;9.30;;;3.20;99.90;;;;;;5062111;28;20040;-72
2023/12/06 08:57:08;;;;;;;17.17;8.10;;;3.30;99.90;;;;;;5091470;28;20047;-72
2023/12/06 08:59:33;;;;;;;18.50;8.87;;;3.30;99.90;;;;;;5088196;28;20047;-72
2023/12/06 09:01:59;;;;;;;16.17;8.23;;;3.30;99.90;;;;;;5082512;28;20063;-71
2023/12/06 09:04:25;;;;;;;15.90;8.47;;;3.30;99.90;;;;;;5076626;28;20040;-71
2023/12/06 09:06:50;;;;;;;22.47;8.23;;;3.30;99.90;;;;;;5085854;28;20400;-72
2023/12/06 09:09:19;;;;;;;17.23;9.80;;;3.30;99.90;;;;;;5087831;28;20147;-72
2023/12/06 09:11:45;;;;;;;18.17;10.40;;;3.30;99.90;;;;;;5069364;28;20416;-72
2023/12/06 09:14:11;;;;;;;14.73;9.68;;;3.30;99.90;;;;;;5083210;28;20041;-72
2023/12/06 09:16:42;;;;;;;14.63;8.15;;;3.30;99.90;;;;;;5095264;28;20050;-72
2023/12/06 09:19:08;;;;;;;16.63;8.60;;;3.30;99.90;;;;;;5064869;28;20416;-72
2023/12/06 09:21:44;;;;;;;19.87;8.20;;;3.30;99.90;;;;;;5073530;28;20047;-71
2023/12/06 09:24:10;;;;;;;18.80;8.87;;;3.30;99.90;;;;;;5077142;28;20040;-71
2023/12/06 09:26:37;;;;;;;15.02;8.40;;;3.30;99.90;;;;;;5083416;28;20284;-71
2023/12/06 09:29:06;;;;;;;16.23;7.63;;;3.40;99.90;;;;;;5089399;28;20052;-70
2023/12/06 09:31:33;;;;;;;15.40;8.27;;;3.40;99.90;;;;;;5068937;28;20048;-71
2023/12/06 09:33:59;;;;;;;15.70;7.65;;;3.40;99.90;;;;;;5068858;28;20044;-72
2023/12/06 09:36:25;;;;;;;15.27;8.37;;;3.40;99.90;;;;;;5076284;28;20274;-71
2023/12/06 09:38:52;;;;;;;16.27;8.35;;;3.40;99.90;;;;;;5089534;28;20292;-71
2023/12/06 09:41:20;;;;;;;15.27;8.07;;;3.40;99.90;;;;;;5065093;28;20378;-71
2023/12/06 09:43:45;;;;;;;13.30;7.72;;;3.50;99.90;;;;;;5080530;28;20488;-71
2023/12/06 09:46:14;;;;;;;12.80;7.50;;;3.50;99.90;;;;;;5083300;28;20047;-70
2023/12/06 09:48:40;;;;;;;16.65;7.82;;;3.50;99.90;;;;;;5081114;28;20040;-71
2023/12/06 09:51:06;;;;;;;14.63;7.40;;;3.50;99.90;;;;;;5087564;28;21864;-71
2023/12/06 09:53:31;;;;;;;11.50;6.80;;;3.50;99.90;;;;;;5084678;28;20051;-71
2023/12/06 09:55:57;;;;;;;13.37;7.13;;;3.50;99.90;;;;;;5076481;28;20040;-71
2023/12/06 09:58:23;;;;;;;15.47;8.13;;;3.50;99.90;;;;;;5083615;28;20043;-74
2023/12/06 10:00:48;;;;;;;13.70;7.63;;;3.60;99.90;;;;;;5082545;28;21130;-71
2023/12/06 10:03:15;;;;;;;16.13;7.57;;;3.60;99.90;;;;;;5087486;28;20027;-71
2023/12/06 10:05:41;;;;;;;13.75;8.27;;;3.60;99.90;;;;;;5072923;28;20170;-70
2023/12/06 10:08:07;;;;;;;13.90;7.15;;;3.60;99.90;;;;;;5081960;28;20040;-71
2023/12/06 10:10:33;;;;;;;13.80;7.57;;;3.60;99.90;;;;;;5080463;28;20509;-71
2023/12/06 10:12:58;;;;;;;11.57;6.70;;;3.60;99.90;;;;;;5081836;28;20043;-71
2023/12/06 10:15:36;;;;;;;12.10;6.73;;;3.70;99.90;;;;;;5089945;28;20040;-81
2023/12/06 10:18:03;;;;;;;12.48;6.88;;;3.70;99.90;;;;;;5069024;28;20048;-71
2023/12/06 10:20:29;;;;;;;15.52;7.07;;;3.70;99.90;;;;;;5077114;28;20044;-72
2023/12/06 10:22:55;;;;;;;9.97;6.37;;;3.70;99.90;;;;;;5096982;28;20035;-76
2023/12/06 10:25:21;;;;;;;11.60;6.67;;;3.70;99.90;;;;;;5084817;28;20258;-71
2023/12/06 10:27:46;;;;;;;10.48;6.47;;;3.70;99.90;;;;;;5086999;28;20044;-70
2023/12/06 10:30:20;;;;;;;10.50;6.43;;;3.80;99.90;;;;;;5071622;28;20048;-72
2023/12/06 10:32:46;;;;;;;12.05;6.50;;;3.80;99.90;;;;;;5078392;28;20105;-71
2023/12/06 10:35:12;;;;;;;12.43;6.50;;;3.80;99.90;;;;;;5086062;28;20035;-71
2023/12/06 10:37:40;;;;;;;11.27;6.17;;;3.80;99.90;;;;;;5080710;28;20065;-71
2023/12/06 10:40:09;;;;;;;11.23;6.38;;;3.80;99.90;;;;;;5074005;28;20075;-71
2023/12/06 10:42:37;;;;;;;15.50;6.68;;;3.80;99.90;;;;;;5075093;28;20043;-72
2023/12/06 10:45:03;;;;;;;11.10;6.03;;;3.90;99.90;;;;;;5091668;28;20408;-71
2023/12/06 10:47:34;;;;;;;12.70;6.53;;;4.00;99.90;;;;;;5091624;28;20140;-71
2023/12/06 10:50:01;;;;;;;9.23;5.70;;;3.90;99.90;;;;;;5080350;28;20075;-71
2023/12/06 10:52:29;;;;;;;10.80;5.65;;;3.90;99.90;;;;;;5084137;28;20039;-72
2023/12/06 10:54:56;;;;;;;11.60;5.50;;;3.90;99.90;;;;;;5083938;28;20082;-71
2023/12/06 10:57:23;;;;;;;12.80;7.05;;;3.90;99.90;;;;;;5092008;28;20512;-71
2023/12/06 10:59:49;;;;;;;11.38;5.60;;;3.90;99.90;;;;;;5074766;28;20067;-71
2023/12/06 11:02:15;;;;;;;11.27;6.47;;;3.90;99.90;;;;;;5092024;28;20035;-71
2023/12/06 11:04:51;;;;;;;10.80;5.75;;;3.90;99.90;;;;;;5086551;28;20073;-71
2023/12/06 11:07:46;;;;;;;12.65;6.10;;;3.90;99.90;;;;;;5088159;28;20044;-71
2023/12/06 11:10:37;;;;;;;14.15;6.35;;;4.00;99.90;;;;;;5084590;28;20072;-71
2023/12/06 11:13:29;;;;;;;10.55;5.93;;;3.90;99.90;;;;;;5088757;28;20044;-71
2023/12/06 11:16:24;;;;;;;17.48;6.03;;;4.00;99.90;;;;;;5079382;28;20044;-71
2023/12/06 11:18:51;;;;;;;10.23;5.90;;;4.00;99.90;;;;;;5088419;28;20324;-71
2023/12/06 11:21:19;;;;;;;;;;;4.00;99.90;;;;;;5081122;28;20531;-71
2023/12/06 11:23:48;;;;;;;11.27;5.78;;;3.90;99.90;;;;;;5089195;28;19916;-71
2023/12/06 11:26:14;;;;;;;13.18;6.22;;;3.90;99.90;;;;;;5083064;28;20054;-72
2023/12/06 11:28:41;;;;;;;9.30;5.63;;;3.90;99.90;;;;;;5080396;28;20043;-71
2023/12/06 11:31:07;;;;;;;;;;;4.00;99.90;;;;;;5089190;28;20052;-71
2023/12/06 11:33:34;;;;;;;10.93;5.43;;;4.00;99.90;;;;;;5083462;28;19928;-72
2023/12/06 11:36:00;;;;;;;11.38;5.32;;;4.00;99.90;;;;;;5079600;28;20048;-72
2023/12/06 11:38:36;;;;;;;11.88;5.15;;;4.00;99.90;;;;;;5083208;28;27701;-72
2023/12/06 11:41:06;;;;;;;11.60;5.80;;;4.00;99.90;;;;;;5071693;28;20043;-71
2023/12/06 11:43:32;;;;;;;12.02;6.13;;;4.00;99.90;;;;;;5075591;28;20041;-72
2023/12/06 11:46:03;;;;;;;11.15;5.80;;;4.10;99.90;;;;;;5075916;28;20050;-72
2023/12/06 11:48:30;;;;;;;12.25;5.57;;;4.10;99.90;;;;;;5083646;28;20048;-72
2023/12/06 11:50:59;;;;;;;11.05;6.10;;;4.10;99.90;;;;;;5082361;28;20032;-72
2023/12/06 11:53:26;;;;;;;13.10;5.53;;;4.10;99.90;;;;;;5090310;28;20525;-71
2023/12/06 11:55:54;;;;;;;11.63;5.55;;;4.10;99.90;;;;;;5079337;28;20032;-71
2023/12/06 11:58:20;;;;;;;13.73;7.93;;;4.10;99.90;;;;;;5080670;28;20036;-71
2023/12/06 12:00:48;;;;;;;11.98;5.50;;;4.10;99.90;;;;;;5077999;28;20036;-71
2023/12/06 12:03:15;;;;;;;11.13;6.47;;;4.10;99.90;;;;;;5069186;28;20419;-71
2023/12/06 12:05:45;;;;;;;9.90;5.95;;;4.10;99.90;;;;;;5093529;28;20039;-71
2023/12/06 12:08:11;;;;;;;12.68;5.63;;;4.20;99.90;;;;;;5065304;28;20453;-71
2023/12/06 12:10:37;;;;;;;10.23;6.13;;;4.20;99.90;;;;;;5089368;28;20040;-71
2023/12/06 12:13:02;;;;;;;8.35;5.72;;;4.20;99.90;;;;;;5090881;28;20522;-71
2023/12/06 12:15:30;;;;;;;9.77;5.57;;;4.20;99.90;;;;;;5073867;28;20045;-71
2023/12/06 12:17:56;;;;;;;10.75;6.15;;;4.20;99.90;;;;;;5072936;28;20032;-71
2023/12/06 12:20:22;;;;;;;11.63;5.68;;;4.20;99.90;;;;;;5085845;28;20044;-71
2023/12/06 12:22:52;;;;;;;9.77;4.73;;;4.20;99.90;;;;;;5083738;28;20142;-71
2023/12/06 12:25:19;;;;;;;10.10;5.90;;;4.20;99.90;;;;;;5082970;28;20115;-71
2023/12/06 12:27:48;;;;;;;9.93;5.85;;;4.20;99.90;;;;;;5072354;28;20402;-71
2023/12/06 12:30:14;;;;;;;9.30;4.97;;;4.20;99.90;;;;;;5064988;28;20040;-73
2023/12/06 12:32:52;;;;;;;8.55;4.80;;;4.20;99.90;;;;;;5090154;28;20071;-72
2023/12/06 12:35:18;;;;;;;10.48;5.30;;;4.20;99.90;;;;;;5082459;28;20036;-72
2023/12/06 12:37:46;;;;;;;8.40;5.78;;;4.20;99.90;;;;;;5087621;28;20036;-71
2023/12/06 12:40:13;;;;;;;8.13;5.38;;;4.20;99.90;;;;;;5093447;28;20040;-72
2023/12/06 12:42:41;;;;;;;;;;;4.20;99.90;;;;;;5085715;28;20044;-71
2023/12/06 12:45:08;;;;;;;9.38;5.28;;;4.20;99.90;;;;;;5090717;28;19931;-71